map of BBK home
BBK - Airport
Location
City:  Kasane, North-West, Botswana
ICAO:FBKE
IATA:BBK

Details
Type:Airport (Aerodrome, Airfield)
Use:International (customs port of entry)
Latitude:1749'58"S (-17.832874)
Longitude:2509'45"E (25.162400)
Datum:WGS 1984
Elevation:3289 ft (1002 m)
Variation:7.19W (WMM2015v2 magnetic declination)
0.01 annual change
Runways:1
Longest:6562 × 98 ft (2000 × 30 m), paved

Time
Time Zone:UTC+2
Local Time:

Weather
METAR:FBKE 041400Z 19010KT 160V230 9999 BKN030 FEW035CB 28/18 Q1012

Related Locations
Nearby:
Farthest:ITO: 12299 mi / 19794 km
Hilo [Hilo Intl], Hawaii, HI, US

Find:

   beyond  
but within

Other Information
Maps:
NOTAMs:
Links:
Sources:

  
  • flag of Botswana
  

Sectional Chart

Flight Planning
at skyvector.com

Satellite Image

Google Maps Satellite view

 

Copyright © 2004-2019 Karl L. Swartz. All rights reserved.
The Great Circle Mapper name and logo are trademarks of the Great Circle Mapper.
All other trademarks mentioned herein belong to their respective owners.
Please see credits for attibutions and further copyright information.

  Follow gcmap on Facebook Follow gcmap on Twitter GCmap on LinkedIn

hCard Microformat

Geo Microformat